sensor_id;sensor_type;location;lat;lon;timestamp;temperature;humidity
29431;DHT22;16404;49.902;10.074;2022-07-23T05:33:30;24.90;53.20
29431;DHT22;16404;49.902;10.074;2022-07-23T05:36:15;25.00;52.00
29431;DHT22;16404;49.902;10.074;2022-07-23T05:39:20;25.20;51.50
29431;DHT22;16404;49.902;10.074;2022-07-23T05:42:05;25.30;51.20
29431;DHT22;16404;49.902;10.074;2022-07-23T05:44:50;25.30;51.10
29431;DHT22;16404;49.902;10.074;2022-07-23T05:47:47;25.30;51.60
29431;DHT22;16404;49.902;10.074;2022-07-23T05:50:44;25.20;51.70
29431;DHT22;16404;49.902;10.074;2022-07-23T05:53:51;25.20;51.30
29431;DHT22;16404;49.902;10.074;2022-07-23T05:57:25;25.20;51.20
29431;DHT22;16404;49.902;10.074;2022-07-23T06:00:10;25.10;51.90
29431;DHT22;16404;49.902;10.074;2022-07-23T06:03:00;25.00;52.30
29431;DHT22;16404;49.902;10.074;2022-07-23T06:05:47;25.00;52.50
29431;DHT22;16404;49.902;10.074;2022-07-23T06:08:32;25.00;52.30
29431;DHT22;16404;49.902;10.074;2022-07-23T06:11:17;25.00;51.90
29431;DHT22;16404;49.902;10.074;2022-07-23T06:14:02;25.10;51.70
29431;DHT22;16404;49.902;10.074;2022-07-23T06:17:08;25.00;51.90
29431;DHT22;16404;49.902;10.074;2022-07-23T06:20:02;25.00;52.20
29431;DHT22;16404;49.902;10.074;2022-07-23T06:22:49;25.00;52.40
29431;DHT22;16404;49.902;10.074;2022-07-23T06:25:35;25.10;52.30
29431;DHT22;16404;49.902;10.074;2022-07-23T06:28:20;25.10;52.30
29431;DHT22;16404;49.902;10.074;2022-07-23T06:31:04;25.10;52.00
29431;DHT22;16404;49.902;10.074;2022-07-23T06:33:50;25.20;52.00
29431;DHT22;16404;49.902;10.074;2022-07-23T06:36:34;25.20;52.40
29431;DHT22;16404;49.902;10.074;2022-07-23T06:39:19;25.10;52.40
29431;DHT22;16404;49.902;10.074;2022-07-23T06:42:06;25.20;52.60
29431;DHT22;16404;49.902;10.074;2022-07-23T06:44:56;25.10;52.70
29431;DHT22;16404;49.902;10.074;2022-07-23T06:47:40;25.10;52.80
29431;DHT22;16404;49.902;10.074;2022-07-23T06:50:25;25.10;52.90
29431;DHT22;16404;49.902;10.074;2022-07-23T06:53:10;25.00;52.80
29431;DHT22;16404;49.902;10.074;2022-07-23T06:55:59;24.90;52.90
29431;DHT22;16404;49.902;10.074;2022-07-23T06:58:45;24.80;53.10
29431;DHT22;16404;49.902;10.074;2022-07-23T07:01:30;24.80;53.30
29431;DHT22;16404;49.902;10.074;2022-07-23T07:04:14;24.70;53.50
29431;DHT22;16404;49.902;10.074;2022-07-23T07:06:59;24.70;54.20
29431;DHT22;16404;49.902;10.074;2022-07-23T07:09:43;24.60;54.30
29431;DHT22;16404;49.902;10.074;2022-07-23T07:12:29;24.60;54.80
29431;DHT22;16404;49.902;10.074;2022-07-23T07:15:15;24.50;55.50
29431;DHT22;16404;49.902;10.074;2022-07-23T07:18:06;24.40;56.60
29431;DHT22;16404;49.902;10.074;2022-07-23T07:21:25;24.40;57.20
29431;DHT22;16404;49.902;10.074;2022-07-23T07:24:11;24.40;56.80
29431;DHT22;16404;49.902;10.074;2022-07-23T07:27:08;24.40;57.10
29431;DHT22;16404;49.902;10.074;2022-07-23T07:29:54;24.50;57.00
29431;DHT22;16404;49.902;10.074;2022-07-23T07:32:39;24.50;56.90
29431;DHT22;16404;49.902;10.074;2022-07-23T07:35:24;24.50;57.60
29431;DHT22;16404;49.902;10.074;2022-07-23T07:38:09;24.60;57.10
29431;DHT22;16404;49.902;10.074;2022-07-23T07:40:53;24.60;56.80
29431;DHT22;16404;49.902;10.074;2022-07-23T07:43:38;24.60;57.40
29431;DHT22;16404;49.902;10.074;2022-07-23T07:46:22;24.80;57.70
29431;DHT22;16404;49.902;10.074;2022-07-23T07:49:08;24.90;57.60
29431;DHT22;16404;49.902;10.074;2022-07-23T07:51:52;25.10;56.80
29431;DHT22;16404;49.902;10.074;2022-07-23T07:54:37;25.30;56.90
29431;DHT22;16404;49.902;10.074;2022-07-23T07:57:21;25.40;56.90
29431;DHT22;16404;49.902;10.074;2022-07-23T08:00:07;25.60;56.80
29431;DHT22;16404;49.902;10.074;2022-07-23T08:02:58;25.60;56.00
29431;DHT22;16404;49.902;10.074;2022-07-23T08:05:43;25.70;55.40
29431;DHT22;16404;49.902;10.074;2022-07-23T08:08:27;25.70;55.80
29431;DHT22;16404;49.902;10.074;2022-07-23T08:11:12;25.70;55.40
29431;DHT22;16404;49.902;10.074;2022-07-23T08:13:57;25.70;55.70
29431;DHT22;16404;49.902;10.074;2022-07-23T08:16:41;25.70;55.40
29431;DHT22;16404;49.902;10.074;2022-07-23T08:19:26;25.90;55.60
29431;DHT22;16404;49.902;10.074;2022-07-23T08:22:11;26.10;55.50
29431;DHT22;16404;49.902;10.074;2022-07-23T08:24:58;26.30;54.70
29431;DHT22;16404;49.902;10.074;2022-07-23T08:27:43;26.50;54.70
29431;DHT22;16404;49.902;10.074;2022-07-23T08:30:35;26.70;54.30
29431;DHT22;16404;49.902;10.074;2022-07-23T08:33:55;27.00;54.10
29431;DHT22;16404;49.902;10.074;2022-07-23T08:37:22;27.40;53.30
29431;DHT22;16404;49.902;10.074;2022-07-23T08:40:07;27.70;52.70
29431;DHT22;16404;49.902;10.074;2022-07-23T08:42:52;27.80;52.20
29431;DHT22;16404;49.902;10.074;2022-07-23T08:45:40;28.00;51.80
29431;DHT22;16404;49.902;10.074;2022-07-23T08:48:30;28.30;51.30
29431;DHT22;16404;49.902;10.074;2022-07-23T08:51:14;28.70;50.90
29431;DHT22;16404;49.902;10.074;2022-07-23T08:54:00;28.90;50.20
29431;DHT22;16404;49.902;10.074;2022-07-23T08:56:45;29.00;49.90
29431;DHT22;16404;49.902;10.074;2022-07-23T08:59:29;29.30;49.30
29431;DHT22;16404;49.902;10.074;2022-07-23T09:02:14;29.50;48.80
29431;DHT22;16404;49.902;10.074;2022-07-23T09:04:58;30.00;48.60
29431;DHT22;16404;49.902;10.074;2022-07-23T09:08:21;30.20;47.60
29431;DHT22;16404;49.902;10.074;2022-07-23T09:11:08;30.60;47.50
29431;DHT22;16404;49.902;10.074;2022-07-23T09:13:55;30.90;46.50
29431;DHT22;16404;49.902;10.074;2022-07-23T09:16:42;31.10;45.30
29431;DHT22;16404;49.902;10.074;2022-07-23T09:19:28;31.20;45.30
29431;DHT22;16404;49.902;10.074;2022-07-23T09:22:17;31.20;44.80
29431;DHT22;16404;49.902;10.074;2022-07-23T09:27:59;31.30;44.20
29431;DHT22;16404;49.902;10.074;2022-07-23T09:30:47;31.30;43.90
29431;DHT22;16404;49.902;10.074;2022-07-23T09:33:34;31.30;43.70
29431;DHT22;16404;49.902;10.074;2022-07-23T09:36:30;31.40;43.40
29431;DHT22;16404;49.902;10.074;2022-07-23T09:39:16;31.40;42.80
29431;DHT22;16404;49.902;10.074;2022-07-23T09:42:20;31.50;42.80
29431;DHT22;16404;49.902;10.074;2022-07-23T09:45:10;31.50;42.70
29431;DHT22;16404;49.902;10.074;2022-07-23T09:48:22;31.50;42.80
29431;DHT22;16404;49.902;10.074;2022-07-23T09:51:06;31.90;42.20
29431;DHT22;16404;49.902;10.074;2022-07-23T09:53:51;32.10;41.10
29431;DHT22;16404;49.902;10.074;2022-07-23T09:56:36;32.20;41.40
29431;DHT22;16404;49.902;10.074;2022-07-23T09:59:24;32.30;40.40
29431;DHT22;16404;49.902;10.074;2022-07-23T10:02:11;32.40;40.30
29431;DHT22;16404;49.902;10.074;2022-07-23T10:05:30;32.40;40.50
29431;DHT22;16404;49.902;10.074;2022-07-23T10:08:36;32.40;39.60
29431;DHT22;16404;49.902;10.074;2022-07-23T10:11:52;32.50;39.80
29431;DHT22;16404;49.902;10.074;2022-07-23T10:14:57;32.60;39.90
29431;DHT22;16404;49.902;10.074;2022-07-23T10:17:42;32.60;40.00
29431;DHT22;16404;49.902;10.074;2022-07-23T10:20:27;32.60;38.90
29431;DHT22;16404;49.902;10.074;2022-07-23T10:23:51;32.80;39.10
29431;DHT22;16404;49.902;10.074;2022-07-23T10:32:43;34.00;37.40
29431;DHT22;16404;49.902;10.074;2022-07-23T10:38:22;34.70;36.80
29431;DHT22;16404;49.902;10.074;2022-07-23T10:41:08;34.70;36.40
29431;DHT22;16404;49.902;10.074;2022-07-23T10:44:16;34.80;36.20
29431;DHT22;16404;49.902;10.074;2022-07-23T10:47:02;34.90;36.00
29431;DHT22;16404;49.902;10.074;2022-07-23T10:49:47;35.10;36.20
29431;DHT22;16404;49.902;10.074;2022-07-23T10:52:31;35.10;35.90
29431;DHT22;16404;49.902;10.074;2022-07-23T10:58:02;35.30;34.50
29431;DHT22;16404;49.902;10.074;2022-07-23T11:00:48;35.20;34.70
29431;DHT22;16404;49.902;10.074;2022-07-23T11:03:34;35.20;35.30
29431;DHT22;16404;49.902;10.074;2022-07-23T11:06:23;35.20;35.20
29431;DHT22;16404;49.902;10.074;2022-07-23T11:09:30;35.20;34.90
29431;DHT22;16404;49.902;10.074;2022-07-23T11:15:14;35.50;34.90
29431;DHT22;16404;49.902;10.074;2022-07-23T11:17:59;35.60;33.60
29431;DHT22;16404;49.902;10.074;2022-07-23T11:20:44;35.70;33.20
29431;DHT22;16404;49.902;10.074;2022-07-23T11:24:04;35.70;33.20
29431;DHT22;16404;49.902;10.074;2022-07-23T11:26:54;35.80;32.90
29431;DHT22;16404;49.902;10.074;2022-07-23T11:29:40;35.90;33.50
29431;DHT22;16404;49.902;10.074;2022-07-23T11:32:29;36.00;32.50
29431;DHT22;16404;49.902;10.074;2022-07-23T11:35:34;36.10;32.30
29431;DHT22;16404;49.902;10.074;2022-07-23T11:38:21;36.10;32.10
29431;DHT22;16404;49.902;10.074;2022-07-23T11:41:06;36.20;32.30
29431;DHT22;16404;49.902;10.074;2022-07-23T11:43:51;36.30;32.40
29431;DHT22;16404;49.902;10.074;2022-07-23T11:46:36;36.30;32.50
29431;DHT22;16404;49.902;10.074;2022-07-23T11:49:20;36.40;32.80
29431;DHT22;16404;49.902;10.074;2022-07-23T11:52:05;36.20;32.30
29431;DHT22;16404;49.902;10.074;2022-07-23T11:55:03;36.20;32.70
29431;DHT22;16404;49.902;10.074;2022-07-23T11:57:50;36.10;32.50
29431;DHT22;16404;49.902;10.074;2022-07-23T12:00:35;35.90;32.40
29431;DHT22;16404;49.902;10.074;2022-07-23T12:03:24;35.80;32.30
29431;DHT22;16404;49.902;10.074;2022-07-23T12:06:09;35.80;32.70
29431;DHT22;16404;49.902;10.074;2022-07-23T12:08:54;35.60;32.90
29431;DHT22;16404;49.902;10.074;2022-07-23T12:11:39;35.50;33.00
29431;DHT22;16404;49.902;10.074;2022-07-23T12:14:57;35.40;32.80
29431;DHT22;16404;49.902;10.074;2022-07-23T12:17:45;35.20;32.20
29431;DHT22;16404;49.902;10.074;2022-07-23T12:20:36;35.10;33.10
29431;DHT22;16404;49.902;10.074;2022-07-23T12:23:22;35.00;33.20
29431;DHT22;16404;49.902;10.074;2022-07-23T12:26:07;34.80;33.60
29431;DHT22;16404;49.902;10.074;2022-07-23T12:28:55;34.80;33.70
29431;DHT22;16404;49.902;10.074;2022-07-23T12:31:39;34.70;33.70
29431;DHT22;16404;49.902;10.074;2022-07-23T12:34:24;34.60;33.40
29431;DHT22;16404;49.902;10.074;2022-07-23T12:37:26;34.50;33.60
29431;DHT22;16404;49.902;10.074;2022-07-23T12:40:30;34.40;33.60
29431;DHT22;16404;49.902;10.074;2022-07-23T12:43:27;34.40;33.70
29431;DHT22;16404;49.902;10.074;2022-07-23T12:46:14;34.40;33.30
29431;DHT22;16404;49.902;10.074;2022-07-23T12:48:59;34.40;33.10
29431;DHT22;16404;49.902;10.074;2022-07-23T12:51:44;34.30;32.90
29431;DHT22;16404;49.902;10.074;2022-07-23T12:54:29;34.30;33.00
29431;DHT22;16404;49.902;10.074;2022-07-23T12:57:13;34.30;32.80
29431;DHT22;16404;49.902;10.074;2022-07-23T13:00:10;34.30;32.90
29431;DHT22;16404;49.902;10.074;2022-07-23T13:02:55;34.30;33.10
29431;DHT22;16404;49.902;10.074;2022-07-23T13:05:39;34.30;33.30
29431;DHT22;16404;49.902;10.074;2022-07-23T13:08:26;34.30;33.00
29431;DHT22;16404;49.902;10.074;2022-07-23T13:11:11;34.30;33.20
29431;DHT22;16404;49.902;10.074;2022-07-23T13:13:55;34.30;33.30
29431;DHT22;16404;49.902;10.074;2022-07-23T13:16:41;34.30;33.00
29431;DHT22;16404;49.902;10.074;2022-07-23T13:19:26;34.30;33.20
29431;DHT22;16404;49.902;10.074;2022-07-23T13:22:10;34.30;32.90
29431;DHT22;16404;49.902;10.074;2022-07-23T13:24:55;34.30;32.70
29431;DHT22;16404;49.902;10.074;2022-07-23T13:27:39;34.30;32.90
29431;DHT22;16404;49.902;10.074;2022-07-23T13:30:24;34.40;32.80
29431;DHT22;16404;49.902;10.074;2022-07-23T13:33:08;34.40;32.70
29431;DHT22;16404;49.902;10.074;2022-07-23T13:35:53;34.40;32.40
29431;DHT22;16404;49.902;10.074;2022-07-23T13:38:38;34.40;32.30
29431;DHT22;16404;49.902;10.074;2022-07-23T13:41:23;34.40;32.20
29431;DHT22;16404;49.902;10.074;2022-07-23T13:44:07;34.30;31.80
29431;DHT22;16404;49.902;10.074;2022-07-23T13:46:52;34.30;31.80
29431;DHT22;16404;49.902;10.074;2022-07-23T13:49:36;34.30;32.30
29431;DHT22;16404;49.902;10.074;2022-07-23T13:52:21;34.20;32.60
29431;DHT22;16404;49.902;10.074;2022-07-23T13:55:06;34.20;32.30
29431;DHT22;16404;49.902;10.074;2022-07-23T13:57:51;34.20;32.20
29431;DHT22;16404;49.902;10.074;2022-07-23T14:00:39;34.30;31.70
29431;DHT22;16404;49.902;10.074;2022-07-23T14:03:24;34.30;32.30
29431;DHT22;16404;49.902;10.074;2022-07-23T14:06:08;34.20;32.20
29431;DHT22;16404;49.902;10.074;2022-07-23T14:08:53;34.20;32.40
29431;DHT22;16404;49.902;10.074;2022-07-23T14:11:37;34.20;32.00
29431;DHT22;16404;49.902;10.074;2022-07-23T14:14:22;34.20;32.00
29431;DHT22;16404;49.902;10.074;2022-07-23T14:17:07;34.20;32.20
29431;DHT22;16404;49.902;10.074;2022-07-23T14:19:52;34.30;31.60
29431;DHT22;16404;49.902;10.074;2022-07-23T14:22:37;34.40;31.70
29431;DHT22;16404;49.902;10.074;2022-07-23T14:25:21;34.40;31.70
29431;DHT22;16404;49.902;10.074;2022-07-23T14:28:06;34.50;31.40
29431;DHT22;16404;49.902;10.074;2022-07-23T14:30:50;34.40;31.10
29431;DHT22;16404;49.902;10.074;2022-07-23T14:33:35;34.50;31.40
29431;DHT22;16404;49.902;10.074;2022-07-23T14:36:19;34.50;31.50
29431;DHT22;16404;49.902;10.074;2022-07-23T14:39:04;34.60;31.40
29431;DHT22;16404;49.902;10.074;2022-07-23T14:41:49;34.60;31.20
29431;DHT22;16404;49.902;10.074;2022-07-23T14:44:34;34.70;31.30
29431;DHT22;16404;49.902;10.074;2022-07-23T14:47:19;34.70;31.10
29431;DHT22;16404;49.902;10.074;2022-07-23T14:50:04;34.70;31.20
29431;DHT22;16404;49.902;10.074;2022-07-23T14:52:48;34.70;31.00
29431;DHT22;16404;49.902;10.074;2022-07-23T14:55:33;34.70;30.60
29431;DHT22;16404;49.902;10.074;2022-07-23T14:58:18;34.70;30.90
29431;DHT22;16404;49.902;10.074;2022-07-23T15:01:02;34.80;30.60
29431;DHT22;16404;49.902;10.074;2022-07-23T15:03:47;34.80;30.60
29431;DHT22;16404;49.902;10.074;2022-07-23T15:06:32;34.80;30.20
29431;DHT22;16404;49.902;10.074;2022-07-23T15:09:17;34.70;30.50
29431;DHT22;16404;49.902;10.074;2022-07-23T15:12:01;34.70;30.20
29431;DHT22;16404;49.902;10.074;2022-07-23T15:14:46;34.70;30.00
29431;DHT22;16404;49.902;10.074;2022-07-23T15:17:32;34.70;30.80
29431;DHT22;16404;49.902;10.074;2022-07-23T15:20:16;34.70;30.00
29431;DHT22;16404;49.902;10.074;2022-07-23T15:23:01;34.60;30.10
29431;DHT22;16404;49.902;10.074;2022-07-23T15:25:46;34.60;30.40
29431;DHT22;16404;49.902;10.074;2022-07-23T15:28:30;34.60;30.40
29431;DHT22;16404;49.902;10.074;2022-07-23T15:31:15;34.60;30.60
29431;DHT22;16404;49.902;10.074;2022-07-23T15:33:59;34.60;30.00
29431;DHT22;16404;49.902;10.074;2022-07-23T15:36:44;34.50;30.00
29431;DHT22;16404;49.902;10.074;2022-07-23T15:39:28;34.50;30.30
29431;DHT22;16404;49.902;10.074;2022-07-23T15:42:13;34.40;30.60
29431;DHT22;16404;49.902;10.074;2022-07-23T15:44:58;34.30;30.60
29431;DHT22;16404;49.902;10.074;2022-07-23T15:47:42;34.20;30.40
29431;DHT22;16404;49.902;10.074;2022-07-23T15:50:27;34.10;30.40
29431;DHT22;16404;49.902;10.074;2022-07-23T15:53:12;34.00;30.80
29431;DHT22;16404;49.902;10.074;2022-07-23T15:55:57;34.00;31.00
29431;DHT22;16404;49.902;10.074;2022-07-23T15:58:42;34.00;31.20
29431;DHT22;16404;49.902;10.074;2022-07-23T16:01:27;34.00;30.50
29431;DHT22;16404;49.902;10.074;2022-07-23T16:04:13;33.90;30.40
29431;DHT22;16404;49.902;10.074;2022-07-23T16:06:59;33.90;30.20
29431;DHT22;16404;49.902;10.074;2022-07-23T16:09:44;33.90;29.80
29431;DHT22;16404;49.902;10.074;2022-07-23T16:12:29;33.90;29.90
29431;DHT22;16404;49.902;10.074;2022-07-23T16:15:13;33.90;29.50
29431;DHT22;16404;49.902;10.074;2022-07-23T16:17:58;33.90;29.60
29431;DHT22;16404;49.902;10.074;2022-07-23T16:20:42;33.90;29.50
29431;DHT22;16404;49.902;10.074;2022-07-23T16:23:27;33.90;29.50
29431;DHT22;16404;49.902;10.074;2022-07-23T16:26:12;33.90;29.70
29431;DHT22;16404;49.902;10.074;2022-07-23T16:28:58;33.80;29.60
29431;DHT22;16404;49.902;10.074;2022-07-23T16:31:42;33.80;29.80
29431;DHT22;16404;49.902;10.074;2022-07-23T16:34:27;33.70;29.50
29431;DHT22;16404;49.902;10.074;2022-07-23T16:37:12;33.70;29.30
29431;DHT22;16404;49.902;10.074;2022-07-23T16:39:56;33.70;29.30
29431;DHT22;16404;49.902;10.074;2022-07-23T16:42:41;33.70;29.20
29431;DHT22;16404;49.902;10.074;2022-07-23T16:45:27;33.60;29.30
29431;DHT22;16404;49.902;10.074;2022-07-23T16:48:11;33.60;29.10
29431;DHT22;16404;49.902;10.074;2022-07-23T16:50:56;33.60;29.10
29431;DHT22;16404;49.902;10.074;2022-07-23T16:53:40;33.70;29.30
29431;DHT22;16404;49.902;10.074;2022-07-23T16:56:25;33.70;28.90
29431;DHT22;16404;49.902;10.074;2022-07-23T16:59:09;33.70;28.90
29431;DHT22;16404;49.902;10.074;2022-07-23T17:01:54;33.70;29.10
29431;DHT22;16404;49.902;10.074;2022-07-23T17:04:39;33.60;28.70
29431;DHT22;16404;49.902;10.074;2022-07-23T17:07:23;33.60;28.80
29431;DHT22;16404;49.902;10.074;2022-07-23T17:10:08;33.50;28.90
29431;DHT22;16404;49.902;10.074;2022-07-23T17:12:54;33.50;29.00
29431;DHT22;16404;49.902;10.074;2022-07-23T17:15:38;33.50;28.50
29431;DHT22;16404;49.902;10.074;2022-07-23T17:18:24;33.50;28.40
29431;DHT22;16404;49.902;10.074;2022-07-23T17:21:08;33.40;28.10
29431;DHT22;16404;49.902;10.074;2022-07-23T17:23:53;33.30;28.40
29431;DHT22;16404;49.902;10.074;2022-07-23T17:26:38;33.30;28.60
29431;DHT22;16404;49.902;10.074;2022-07-23T17:29:23;33.20;28.70
29431;DHT22;16404;49.902;10.074;2022-07-23T17:32:07;33.10;28.70
29431;DHT22;16404;49.902;10.074;2022-07-23T17:34:52;33.10;28.90
29431;DHT22;16404;49.902;10.074;2022-07-23T17:37:37;33.10;29.00
29431;DHT22;16404;49.902;10.074;2022-07-23T17:40:21;33.00;29.20
29431;DHT22;16404;49.902;10.074;2022-07-23T17:43:06;33.00;29.30
29431;DHT22;16404;49.902;10.074;2022-07-23T17:45:51;32.90;29.40
29431;DHT22;16404;49.902;10.074;2022-07-23T17:48:35;32.90;29.50
29431;DHT22;16404;49.902;10.074;2022-07-23T17:51:20;32.90;29.70
29431;DHT22;16404;49.902;10.074;2022-07-23T17:54:05;32.80;29.80
29431;DHT22;16404;49.902;10.074;2022-07-23T17:56:49;32.80;30.00
29431;DHT22;16404;49.902;10.074;2022-07-23T17:59:34;32.70;30.00
29431;DHT22;16404;49.902;10.074;2022-07-23T18:02:19;32.70;29.80
29431;DHT22;16404;49.902;10.074;2022-07-23T18:05:04;32.60;29.90
29431;DHT22;16404;49.902;10.074;2022-07-23T18:07:49;32.50;29.90
29431;DHT22;16404;49.902;10.074;2022-07-23T18:10:35;32.40;30.10
29431;DHT22;16404;49.902;10.074;2022-07-23T18:13:19;32.40;30.20
29431;DHT22;16404;49.902;10.074;2022-07-23T18:16:04;32.30;30.30
29431;DHT22;16404;49.902;10.074;2022-07-23T18:18:48;32.20;30.50
29431;DHT22;16404;49.902;10.074;2022-07-23T18:21:33;32.10;30.50
29431;DHT22;16404;49.902;10.074;2022-07-23T18:24:18;32.10;30.60
29431;DHT22;16404;49.902;10.074;2022-07-23T18:27:02;32.10;30.70
29431;DHT22;16404;49.902;10.074;2022-07-23T18:29:47;31.90;30.70
29431;DHT22;16404;49.902;10.074;2022-07-23T18:32:32;31.90;31.00
29431;DHT22;16404;49.902;10.074;2022-07-23T18:35:16;31.80;31.20
29431;DHT22;16404;49.902;10.074;2022-07-23T18:38:01;31.70;31.30
29431;DHT22;16404;49.902;10.074;2022-07-23T18:40:46;31.60;31.40
29431;DHT22;16404;49.902;10.074;2022-07-23T18:43:31;31.60;31.50
29431;DHT22;16404;49.902;10.074;2022-07-23T18:46:17;31.60;31.40
29431;DHT22;16404;49.902;10.074;2022-07-23T18:49:02;31.40;31.60
29431;DHT22;16404;49.902;10.074;2022-07-23T18:51:46;31.30;32.00
29431;DHT22;16404;49.902;10.074;2022-07-23T18:54:31;31.10;32.10
29431;DHT22;16404;49.902;10.074;2022-07-23T18:57:15;31.00;32.40
29431;DHT22;16404;49.902;10.074;2022-07-23T19:00:01;30.90;32.60
29431;DHT22;16404;49.902;10.074;2022-07-23T19:02:46;30.80;32.80
29431;DHT22;16404;49.902;10.074;2022-07-23T19:05:30;30.70;32.90
29431;DHT22;16404;49.902;10.074;2022-07-23T19:08:15;30.60;32.90
29431;DHT22;16404;49.902;10.074;2022-07-23T19:10:59;30.50;33.20
29431;DHT22;16404;49.902;10.074;2022-07-23T19:13:44;30.40;33.20
29431;DHT22;16404;49.902;10.074;2022-07-23T19:16:29;30.20;33.20
29431;DHT22;16404;49.902;10.074;2022-07-23T19:19:13;30.10;33.50
29431;DHT22;16404;49.902;10.074;2022-07-23T19:21:58;30.00;33.70
29431;DHT22;16404;49.902;10.074;2022-07-23T19:24:42;29.90;33.90
29431;DHT22;16404;49.902;10.074;2022-07-23T19:27:28;29.80;34.20
29431;DHT22;16404;49.902;10.074;2022-07-23T19:30:13;29.70;34.40
